Metar z pełnej godziny Komunikat METAR ze strony awiacja.imgw.pl Metar G00 EPSC METAR EPSC 200200Z VRB02KT CAVOK 17/12 Q1014 =